Aérodrome :
LOGIN :

S'inscrire | Disclaimer

   EN    FR    IT 

 










Légende :    VFR   VFR Marginal   IFR   IFR Intensif   IFR Très Intensif
Visi : 
Plafond : 
>= 8 km
>= 3000ft
5 à 8 km
1000 à 3000 ft
1500m à 5 km
500 à 1000 ft
800 à 1500m
200 à 500 ft
< 800m
< 200 ft
Symboles :   Orages  Brouillard  Fortes neiges  Fortes précipitations  Vent > 20 kt
SIGMETs :   Divers  Orages  Givrage  Turbulence  Onde Orograph.  Cendres Volcan.







- Altitude de l'aérodrome : 580 ft
- Voir les cartes d'approche


LFOA - Avord

DERNIER METAR :
  • 131630Z AUTO 20014KT 9999 -RA BKN015 BKN024 OVC032 08/06 Q1006 TEMPO 23020G40KT 3000 RA BKN008

METARs EXPIRÉS :
  • 131600Z AUTO 20016KT 9999 -DZ BKN016 BKN028 BKN043 08/06 Q1006 TEMPO 23020G40KT 3000 RA BKN008
  • 131530Z AUTO 20016KT 9999 BKN017 BKN023 BKN031 08/06 Q1007 TEMPO 23020G40KT 3000 RA BKN008
  • 131500Z AUTO 21018KT 9999 OVC015 07/06 Q1008 TEMPO 23020G40KT 3000 RA BKN008
  • 131430Z AUTO 22015KT 9999 OVC015 08/06 Q1008 TEMPO 23020G40KT 3000 RA BKN008
  • 131400Z AUTO 22016KT 9999 OVC013 08/06 Q1009 TEMPO 3000 RA BKN008 BECMG 23020G35KT

TAF TAF LFOA
Valide du 13 à 15h jusqu'au 14 à 15h UTC


131400Z 1315/1415 23015G30KT 9999 BKN013
TEMPO 1315/1321 23020G40KT 3000 RA BKN008
BECMG 1322/1324 BKN025
PROB40
TEMPO 1400/1404 24025G50KT 4000 SHRA BKN008 BKN020TCU
TEMPO 1408/1415 24020G40KT 4000 SHRA SCT008 BKN015TCU
PROB40
TEMPO 1412/1415 2000 TSRA BKN008 BKN015CB
Pas de NOTAMs connus pour ce terrain.
4 SIGMETs publiés pour la FIR Paris (LFFF) :
 
Turbulence forte
LFFF SIGMET 6 VALID 131700/132000 LFPW
LFFF PARIS FIR/UIR SEV TURB FCST S OF N4745 AND W OF E00300 SFC/FL050 MOV NE 40KT INTSF=
Annulation du SIGMET 4 
LFFF SIGMET 5 VALID 131600/132100 LFPW
LFFF PARIS FIR/UIR CNL SIGMET 4 131700/132100=
SIGMET 4  ANNULÉ :
Turbulence forte
LFFF SIGMET 4 VALID 131700/132100 LFPW
LFFF PARIS FIR/UIR SEV TURB FCST S OF N4745 AND W OF E00300 SFC/FL050 MOV NE 40KT INTSF=
Turbulence forte
LFFF SIGMET 3 VALID 131600/132000 LFPW
LFFF PARIS FIR/UIR SEV TURB FCST WI N4900 W00015 - N5000 W00015 - N5115 E00200 - N5100 E00215 - N5000 E00215 - N4900 W00015 SFC/FL050 MOV E 50KT NC=



MET'MAP, la Météo Aéronautique d'un coup d'oeil ! - Copyright ORBIFLY Décembre 2007 - Disclaimer

ORBIFLY MET'MAP TEAM :

Programmation & Développement : Alexandra Zaïnal
Conception & Développement : Baudouin d'Aumeries
Co-Programmation & Développement : Marc-Olivier Méhu
Soutien technique & logistique : Manuel Goepfert

Contact : metmap@orbifly.com




SOURCES & CREDITS :

   NOAA